Time;durP1;ratioP1;P1;durP2;ratioP2;P2;SDS_P1;SDS_P2;PMS_P1;PMS_P2;Temp;Humidity;BMP_temperature;BMP_pressure;BME280_temperature;BME280_humidity;BME280_pressure;Samples;Min_cycle;Max_cycle;Signal;HPM_P1;HPM_P2
2023/05/07 00:02:08;;;;;;;;;;;12.50;99.90;;;;;;5022364;28;19929;-62
2023/05/07 00:04:39;;;;;;;;;;;12.50;99.90;;;;;;5039770;28;19925;-62
2023/05/07 00:07:11;;;;;;;;;;;12.40;99.90;;;;;;5042250;28;19978;-62
2023/05/07 00:09:43;;;;;;;;;;;12.40;99.90;;;;;;5043411;28;19932;-62
2023/05/07 00:12:14;;;;;;;;;;;12.30;99.90;;;;;;5032398;28;19933;-62
2023/05/07 00:14:46;;;;;;;;;;;12.30;99.90;;;;;;5044693;28;20134;-62
2023/05/07 00:17:17;;;;;;;;;;;12.20;99.90;;;;;;5032781;28;19931;-62
2023/05/07 00:19:49;;;;;;;;;;;12.20;99.90;;;;;;5018973;28;19937;-62
2023/05/07 00:22:21;;;;;;;;;;;12.10;99.90;;;;;;5034136;28;19979;-62
2023/05/07 00:24:48;;;;;;;;;;;12.10;99.90;;;;;;5033173;28;19929;-63
2023/05/07 00:27:20;;;;;;;;;;;12.10;99.90;;;;;;5036539;28;20349;-63
2023/05/07 00:29:51;;;;;;;;;;;12.10;99.90;;;;;;5032246;28;20019;-63
2023/05/07 00:32:23;;;;;;;;;;;12.10;99.90;;;;;;5024601;28;19925;-62
2023/05/07 00:34:55;;;;;;;;;;;12.10;99.90;;;;;;5041179;28;20012;-62
2023/05/07 00:37:27;;;;;;;;;;;12.20;99.90;;;;;;5026242;28;19929;-62
2023/05/07 00:39:58;;;;;;;;;;;12.20;99.90;;;;;;5022210;28;19925;-63
2023/05/07 00:42:32;;;;;;;;;;;12.20;99.90;;;;;;5022625;28;19929;-63
2023/05/07 00:45:04;;;;;;;;;;;12.10;99.90;;;;;;5022902;28;19932;-62
2023/05/07 00:47:36;;;;;;;;;;;12.10;99.90;;;;;;5031029;28;19932;-62
2023/05/07 00:50:03;;;;;;;;;;;12.10;99.90;;;;;;5019064;28;19933;-62
2023/05/07 00:52:35;;;;;;;;;;;12.10;99.90;;;;;;5028886;28;19928;-62
2023/05/07 00:55:06;;;;;;;;;;;12.10;99.90;;;;;;5031721;28;19929;-62
2023/05/07 00:57:39;;;;;;;;;;;12.10;99.90;;;;;;5026949;28;20405;-62
2023/05/07 01:00:12;;;;;;;;;;;12.10;99.90;;;;;;5042955;28;19925;-62
2023/05/07 01:02:43;;;;;;;;;;;12.10;99.90;;;;;;5042715;28;20359;-62
2023/05/07 01:05:16;;;;;;;;;;;12.10;99.90;;;;;;5042192;28;19929;-62
2023/05/07 01:07:49;;;;;;;;;;;12.10;99.90;;;;;;5046910;28;20409;-62
2023/05/07 01:10:21;;;;;;;;;;;12.00;99.90;;;;;;5030868;28;19932;-62
2023/05/07 01:12:53;;;;;;;;;;;12.00;99.90;;;;;;5040069;28;19929;-62
2023/05/07 01:15:25;;;;;;;;;;;11.90;99.90;;;;;;5029663;28;20407;-62
2023/05/07 01:17:57;;;;;;;;;;;11.80;99.90;;;;;;5026045;28;19933;-62
2023/05/07 01:20:33;;;;;;;;;;;11.70;99.90;;;;;;5026508;28;20286;-62
2023/05/07 01:23:06;;;;;;;;;;;11.60;99.90;;;;;;5029583;28;19935;-62
2023/05/07 01:25:38;;;;;;;;;;;11.60;99.90;;;;;;5043885;28;19925;-62
2023/05/07 01:28:06;;;;;;;;;;;11.60;99.90;;;;;;5033722;28;19933;-62
2023/05/07 01:30:35;;;;;;;;;;;11.60;99.90;;;;;;5031581;28;19939;-62
2023/05/07 01:33:13;;;;;;;;;;;11.60;99.90;;;;;;5026484;28;20576;-62
2023/05/07 01:35:47;;;;;;;;;;;11.60;99.90;;;;;;5037838;28;19925;-62
2023/05/07 01:38:20;;;;;;;;;;;11.60;99.90;;;;;;5039671;28;19929;-62
2023/05/07 01:40:53;;;;;;;;;;;11.60;99.90;;;;;;5024541;28;19929;-62
2023/05/07 01:43:24;;;;;;;;;;;11.60;99.90;;;;;;5027706;28;19925;-62
2023/05/07 01:45:57;;;;;;;;;;;11.70;99.90;;;;;;5039601;28;19932;-62
2023/05/07 01:48:29;;;;;;;;;;;11.70;99.90;;;;;;5041721;28;19969;-62
2023/05/07 01:51:01;;;;;;;;;;;11.70;99.90;;;;;;5045076;28;20229;-62
2023/05/07 01:53:36;;;;;;;;;;;11.70;99.90;;;;;;5029957;28;19996;-62
2023/05/07 01:56:08;;;;;;;;;;;11.70;99.90;;;;;;5029347;28;19942;-62
2023/05/07 01:58:41;;;;;;;;;;;11.70;99.90;;;;;;5036451;28;20019;-62
2023/05/07 02:01:13;;;;;;;;;;;11.70;99.90;;;;;;5028361;28;19925;-62
2023/05/07 02:03:45;;;;;;;;;;;11.70;99.90;;;;;;5022681;28;19980;-62
2023/05/07 02:06:22;;;;;;;;;;;11.70;99.90;;;;;;5034497;28;19935;-62
2023/05/07 02:08:58;;;;;;;;;;;11.70;99.90;;;;;;5019091;28;19975;-62
2023/05/07 02:11:30;;;;;;;;;;;11.70;99.90;;;;;;5028067;28;19929;-62
2023/05/07 02:14:02;;;;;;;;;;;11.70;99.90;;;;;;5026766;28;19929;-62
2023/05/07 02:16:34;;;;;;;;;;;11.70;99.90;;;;;;5030449;28;19925;-62
2023/05/07 02:19:00;;;;;;;;;;;11.70;99.90;;;;;;5036019;28;19933;-62
2023/05/07 02:21:32;;;;;;;;;;;11.60;99.90;;;;;;5026245;28;19925;-62
2023/05/07 02:24:04;;;;;;;;;;;11.60;99.90;;;;;;5038476;28;19983;-62
2023/05/07 02:26:36;;;;;;;;;;;11.50;99.90;;;;;;5022229;28;19925;-62
2023/05/07 02:29:08;;;;;;;;;;;11.50;99.90;;;;;;5026219;28;19940;-62
2023/05/07 02:31:40;;;;;;;;;;;11.50;99.90;;;;;;5040819;28;19948;-62
2023/05/07 02:34:11;;;;;;;;;;;11.40;99.90;;;;;;5034413;28;19974;-63
2023/05/07 02:36:43;;;;;;;;;;;11.40;99.90;;;;;;5039974;28;19925;-62
2023/05/07 02:39:18;;;;;;;;;;;11.30;99.90;;;;;;5032899;28;19991;-62
2023/05/07 02:41:50;;;;;;;;;;;11.30;99.90;;;;;;5026591;28;19925;-62
2023/05/07 02:44:21;;;;;;;;;;;11.30;99.90;;;;;;5026504;28;20514;-62
2023/05/07 02:46:53;;;;;;;;;;;11.30;99.90;;;;;;5042957;28;19935;-62
2023/05/07 02:49:25;;;;;;;;;;;11.30;99.90;;;;;;5022336;28;20307;-62
2023/05/07 02:51:57;;;;;;;;;;;11.30;99.90;;;;;;5034093;28;19940;-62
2023/05/07 02:54:29;;;;;;;;;;;11.30;99.90;;;;;;5032662;28;20385;-62
2023/05/07 02:57:01;;;;;;;;;;;11.20;99.90;;;;;;5035732;28;20344;-62
2023/05/07 02:59:33;;;;;;;;;;;11.30;99.90;;;;;;5024137;28;19925;-62
2023/05/07 03:02:05;;;;;;;;;;;11.30;99.90;;;;;;5024493;28;20345;-62
2023/05/07 03:04:37;;;;;;;;;;;11.30;99.90;;;;;;5029186;28;19975;-62
2023/05/07 03:07:09;;;;;;;;;;;11.30;99.90;;;;;;5028222;28;19935;-62
2023/05/07 03:09:41;;;;;;;;;;;11.30;99.90;;;;;;5039695;28;20373;-62
2023/05/07 03:12:08;;;;;;;;;;;11.30;99.90;;;;;;5030395;28;19925;-62
2023/05/07 03:14:39;;;;;;;;;;;11.20;99.90;;;;;;5043873;28;19937;-62
2023/05/07 03:17:11;;;;;;;;;;;11.20;99.90;;;;;;5034181;28;19925;-62
2023/05/07 03:19:38;;;;;;;;;;;11.20;99.90;;;;;;5035091;28;19936;-62
2023/05/07 03:22:10;;;;;;;;;;;11.20;99.90;;;;;;5038129;28;19933;-62
2023/05/07 03:24:41;;;;;;;;;;;11.20;99.90;;;;;;5026919;28;19924;-62
2023/05/07 03:27:14;;;;;;;;;;;11.20;99.90;;;;;;5029508;28;19928;-62
2023/05/07 03:29:41;;;;;;;;;;;11.10;99.90;;;;;;5029829;28;19972;-62
2023/05/07 03:32:13;;;;;;;;;;;11.20;99.90;;;;;;5024419;28;19931;-62
2023/05/07 03:34:44;;;;;;;;;;;11.10;99.90;;;;;;5023466;28;19928;-62
2023/05/07 03:37:16;;;;;;;;;;;11.10;99.90;;;;;;5033073;28;20375;-62
2023/05/07 03:39:43;;;;;;;;;;;11.00;99.90;;;;;;5035510;28;19979;-62
2023/05/07 03:42:15;;;;;;;;;;;11.00;99.90;;;;;;5030104;28;19936;-62
2023/05/07 03:44:50;;;;;;;;;;;11.00;99.90;;;;;;5023997;28;19931;-62
2023/05/07 03:47:22;;;;;;;;;;;11.00;99.90;;;;;;5027511;28;19925;-62
2023/05/07 03:49:54;;;;;;;;;;;11.00;99.90;;;;;;5033084;28;19932;-62
2023/05/07 03:52:26;;;;;;;;;;;11.00;99.90;;;;;;5032486;28;19932;-62
2023/05/07 03:55:00;;;;;;;;;;;10.90;99.90;;;;;;5017742;28;19992;-62
2023/05/07 03:57:33;;;;;;;;;;;11.00;99.90;;;;;;5023529;28;19925;-62
2023/05/07 04:00:06;;;;;;;;;;;11.00;99.90;;;;;;5007010;28;19932;-62
2023/05/07 04:02:46;;;;;;;;;;;10.90;99.90;;;;;;5039353;28;19929;-62
2023/05/07 04:05:15;;;;;;;;;;;10.90;99.90;;;;;;5031471;28;19976;-62
2023/05/07 04:07:50;;;;;;;;;;;10.80;99.90;;;;;;5034880;28;19928;-62
2023/05/07 04:10:29;;;;;;;;;;;10.80;99.90;;;;;;5032627;28;19924;-62
2023/05/07 04:13:05;;;;;;;;;;;10.70;99.90;;;;;;5047134;28;19929;-62
2023/05/07 04:15:37;;;;;;;;;;;10.70;99.90;;;;;;5046829;28;19960;-62
2023/05/07 04:18:12;;;;;;;;;;;10.70;99.90;;;;;;5019384;28;20011;-62
2023/05/07 04:20:45;;;;;;;;;;;10.70;99.90;;;;;;5025096;28;19970;-62
2023/05/07 04:23:17;;;;;;;;;;;10.70;99.90;;;;;;5027128;28;20015;-62
2023/05/07 04:25:50;;;;;;;;;;;10.70;99.90;;;;;;5026742;28;19956;-61
2023/05/07 04:28:32;;;;;;;;;;;10.70;99.90;;;;;;5033719;28;20048;-62
2023/05/07 04:31:04;;;;;;;;;;;10.70;99.90;;;;;;5031136;28;19940;-62
2023/05/07 04:33:36;;;;;;;;;;;10.70;99.90;;;;;;5035202;28;19925;-62
2023/05/07 04:36:11;;;;;;;;;;;10.70;99.90;;;;;;5024455;28;20405;-62
2023/05/07 04:38:49;;;;;;;;;;;10.70;99.90;;;;;;5032124;28;19971;-62
2023/05/07 04:41:21;;;;;;;;;;;10.70;99.90;;;;;;5025708;28;19925;-62
2023/05/07 04:43:53;;;;;;;;;;;10.70;99.90;;;;;;5027564;28;19933;-62
2023/05/07 04:46:23;;;;;;;;;;;10.80;99.90;;;;;;5024807;28;19925;-62
2023/05/07 04:48:57;;;;;;;;;;;10.80;99.90;;;;;;5032702;28;19960;-62
2023/05/07 04:51:29;;;;;;;;;;;10.80;99.90;;;;;;5029203;28;19929;-62
2023/05/07 04:54:00;;;;;;;;;;;10.80;99.90;;;;;;5027471;28;20423;-62
2023/05/07 04:56:32;;;;;;;;;;;10.90;99.90;;;;;;5025036;28;20312;-62
2023/05/07 04:59:03;;;;;;;;;;;10.90;99.90;;;;;;5039649;28;20373;-62
2023/05/07 05:01:35;;;;;;;;;;;10.90;99.90;;;;;;5026508;28;19929;-62
2023/05/07 05:04:07;;;;;;;;;;;11.00;99.90;;;;;;5019611;28;20447;-62
2023/05/07 05:06:40;;;;;;;;;;;10.90;99.90;;;;;;5033201;28;19925;-62
2023/05/07 05:09:14;;;;;;;;;;;10.90;99.90;;;;;;5029371;28;19960;-62
2023/05/07 05:11:46;;;;;;;;;;;11.00;99.90;;;;;;5046278;28;19929;-62
2023/05/07 05:14:18;;;;;;;;;;;11.00;99.90;;;;;;5033902;28;19931;-65
2023/05/07 05:16:51;;;;;;;;;;;11.10;99.90;;;;;;5024099;28;19979;-62
2023/05/07 05:19:22;;;;;;;;;;;11.10;99.90;;;;;;5034690;28;20019;-62
2023/05/07 05:21:54;;;;;;;;;;;11.20;99.90;;;;;;5018536;28;19983;-62
2023/05/07 05:24:27;;;;;;;;;;;11.20;99.90;;;;;;5032246;28;19925;-62
2023/05/07 05:27:01;;;;;;;;;;;11.30;99.90;;;;;;5017024;28;20020;-62
2023/05/07 05:29:31;;;;;;;;;;;11.30;99.90;;;;;;5035093;28;19932;-62
2023/05/07 05:32:03;;;;;;;;;;;11.30;99.90;;;;;;5027959;28;19928;-62
2023/05/07 05:34:35;;;;;;;;;;;11.40;99.90;;;;;;5028075;28;19964;-62
2023/05/07 05:37:06;;;;;;;;;;;11.40;99.90;;;;;;5046832;28;19933;-62
2023/05/07 05:39:33;;;;;;;;;;;11.50;99.90;;;;;;5036813;28;19960;-62
2023/05/07 05:42:07;;;;;;;;;;;11.50;99.90;;;;;;5038572;28;19940;-62
2023/05/07 05:44:39;;;;;;;;;;;11.60;99.90;;;;;;5024327;28;19969;-62
2023/05/07 05:47:11;;;;;;;;;;;11.60;99.90;;;;;;5020232;28;19925;-62
2023/05/07 05:49:43;;;;;;;;;;;11.70;99.90;;;;;;5025868;28;20697;-62
2023/05/07 05:52:14;;;;;;;;;;;11.70;99.90;;;;;;5025787;28;19932;-62
2023/05/07 05:54:46;;;;;;;;;;;11.70;99.90;;;;;;5024823;28;19925;-62
2023/05/07 05:57:12;;;;;;;;;;;11.80;99.90;;;;;;5043860;28;19932;-62
2023/05/07 05:59:45;;;;;;;;;;;11.80;99.90;;;;;;5043617;28;19925;-62
2023/05/07 06:02:16;;;;;;;;;;;11.90;99.90;;;;;;5034196;28;19935;-62
2023/05/07 06:04:48;;;;;;;;;;;12.00;99.90;;;;;;5040573;28;19956;-62
2023/05/07 06:07:22;;;;;;;;;;;12.00;99.90;;;;;;5030065;28;19931;-62
2023/05/07 06:09:55;;;;;;;;;;;12.10;99.90;;;;;;5022076;28;19925;-62
2023/05/07 06:12:27;;;;;;;;;;;12.20;99.90;;;;;;5036901;28;19929;-62
2023/05/07 06:14:59;;;;;;;;;;;12.30;99.90;;;;;;5021934;28;19932;-62
2023/05/07 06:17:30;;;;;;;;;;;12.30;99.90;;;;;;5032454;28;19949;-62
2023/05/07 06:20:02;;;;;;;;;;;12.40;99.90;;;;;;5039269;28;19960;-62
2023/05/07 06:22:34;;;;;;;;;;;12.50;99.90;;;;;;5031362;28;19929;-62
2023/05/07 06:25:07;;;;;;;;;;;12.60;99.90;;;;;;5039516;28;19933;-62
2023/05/07 06:27:39;;;;;;;;;;;12.70;99.90;;;;;;5034262;28;20313;-63
2023/05/07 06:30:11;;;;;;;;;;;12.70;99.90;;;;;;5020348;28;19929;-63
2023/05/07 06:32:40;;;;;;;;;;;12.80;99.90;;;;;;5024343;28;19928;-62
2023/05/07 06:35:07;;;;;;;;;;;12.90;99.90;;;;;;5043649;28;19966;-62
2023/05/07 06:37:42;;;;;;;;;;;13.00;99.90;;;;;;5023408;28;19925;-62
2023/05/07 06:40:19;;;;;;;;;;;13.10;99.90;;;;;;5019682;28;19932;-62
2023/05/07 06:42:50;;;;;;;;;;;13.20;99.90;;;;;;5026333;28;20357;-62
2023/05/07 06:45:42;;;;;;;;;;;13.40;99.90;;;;;;5039996;28;19988;-62
2023/05/07 06:48:14;;;;;;;;;;;13.50;99.90;;;;;;5047570;28;20412;-62
2023/05/07 06:50:51;;;;;;;;;;;13.60;99.90;;;;;;5045229;28;19929;-62
2023/05/07 06:53:25;;;;;;;;;;;13.70;99.90;;;;;;5014127;28;19948;-62
2023/05/07 06:55:54;;;;;;;;;;;13.80;99.90;;;;;;5027544;28;19932;-62
2023/05/07 06:58:26;;;;;;;;;;;13.90;99.90;;;;;;5017468;28;19925;-64
2023/05/07 07:00:58;;;;;;;;;;;14.00;99.90;;;;;;5019177;28;20344;-62
2023/05/07 07:03:31;;;;;;;;;;;14.10;99.90;;;;;;5035180;28;19929;-62
2023/05/07 07:06:04;;;;;;;;;;;14.30;99.90;;;;;;5018584;28;20305;-62
2023/05/07 07:08:31;;;;;;;;;;;14.40;99.90;;;;;;5043897;28;19939;-62
2023/05/07 07:11:03;;;;;;;;;;;14.50;99.90;;;;;;5014536;28;19978;-62
2023/05/07 07:13:35;;;;;;;;;;;14.60;99.90;;;;;;5045806;28;20030;-62
2023/05/07 07:16:07;;;;;;;;;;;14.70;99.90;;;;;;5024501;28;19929;-62
2023/05/07 07:18:39;;;;;;;;;;;14.80;99.90;;;;;;5044362;28;20390;-62
2023/05/07 07:21:11;;;;;;;;;;;15.00;99.90;;;;;;5048826;28;19944;-62
2023/05/07 07:23:43;;;;;;;;;;;15.10;99.90;;;;;;5025780;28;20200;-62
2023/05/07 07:26:15;;;;;;;;;;;15.20;99.90;;;;;;5042844;28;19934;-62
2023/05/07 07:28:45;;;;;;;;;;;15.30;99.90;;;;;;5034844;28;19931;-62
2023/05/07 07:31:20;;;;;;;;;;;15.50;99.90;;;;;;5029320;28;19924;-63
2023/05/07 07:33:51;;;;;;;;;;;15.60;99.90;;;;;;5014635;28;19929;-62
2023/05/07 07:36:24;;;;;;;;;;;15.70;99.90;;;;;;5029931;28;19924;-63
2023/05/07 07:38:55;;;;;;;;;;;15.90;99.90;;;;;;5045609;28;19929;-62
2023/05/07 07:41:27;;;;;;;;;;;16.10;99.90;;;;;;5045221;28;19947;-64
2023/05/07 07:43:59;;;;;;;;;;;16.20;99.90;;;;;;5033229;28;19935;-63
2023/05/07 07:46:31;;;;;;;;;;;16.30;99.90;;;;;;5034758;28;19928;-63
2023/05/07 07:49:03;;;;;;;;;;;16.40;99.90;;;;;;5031721;28;20380;-68
2023/05/07 07:51:30;;;;;;;;;;;16.60;99.90;;;;;;5023871;28;20408;-62
2023/05/07 07:54:02;;;;;;;;;;;16.70;99.90;;;;;;5012662;28;20417;-62
2023/05/07 07:56:35;;;;;;;;;;;16.90;99.90;;;;;;5027711;28;19924;-62
2023/05/07 07:59:08;;;;;;;;;;;17.10;99.90;;;;;;5037551;28;20043;-62
2023/05/07 08:01:37;;;;;;;;;;;17.20;99.90;;;;;;5022632;28;19935;-62
2023/05/07 08:04:09;;;;;;;;;;;17.40;99.90;;;;;;5030128;28;19936;-63
2023/05/07 08:06:39;;;;;;;;;;;17.50;99.90;;;;;;5031459;28;19982;-62
2023/05/07 08:09:11;;;;;;;;;;;17.60;99.90;;;;;;5044276;28;19925;-62
2023/05/07 08:11:40;;;;;;;;;;;17.80;99.90;;;;;;5042021;28;19931;-62
2023/05/07 08:14:06;;;;;;;;;;;17.90;99.90;;;;;;5022158;28;20309;-62
2023/05/07 08:16:38;;;;;;;;;;;18.10;99.90;;;;;;5026022;28;19944;-62
2023/05/07 08:19:10;;;;;;;;;;;18.20;99.90;;;;;;5043351;28;19931;-62
2023/05/07 08:21:43;;;;;;;;;;;18.40;99.90;;;;;;5010859;28;20023;-62
2023/05/07 08:24:17;;;;;;;;;;;18.50;99.90;;;;;;5027264;28;19928;-62
2023/05/07 08:26:49;;;;;;;;;;;18.50;99.90;;;;;;5026566;28;19932;-62
2023/05/07 08:29:21;;;;;;;;;;;18.60;99.90;;;;;;5024577;28;19974;-62
2023/05/07 08:31:53;;;;;;;;;;;18.60;99.90;;;;;;5026467;28;19958;-62
2023/05/07 08:34:25;;;;;;;;;;;18.70;99.90;;;;;;5022553;28;19929;-62
2023/05/07 08:36:53;;;;;;;;;;;18.80;99.90;;;;;;5023191;28;19964;-62
2023/05/07 08:39:26;;;;;;;;;;;18.90;99.90;;;;;;5020240;28;20328;-62
2023/05/07 08:41:59;;;;;;;;;;;19.00;99.90;;;;;;5019596;28;19979;-63
2023/05/07 08:44:34;;;;;;;;;;;19.10;99.90;;;;;;5038016;28;20444;-63
2023/05/07 08:47:02;;;;;;;;;;;19.10;99.90;;;;;;5011150;28;19929;-63
2023/05/07 08:49:35;;;;;;;;;;;19.20;99.90;;;;;;5030473;28;19933;-63
2023/05/07 08:52:01;;;;;;;;;;;19.30;99.90;;;;;;5025777;28;20369;-63
2023/05/07 08:54:33;;;;;;;;;;;19.40;99.90;;;;;;5034787;28;19929;-63
2023/05/07 08:57:07;;;;;;;;;;;19.50;99.90;;;;;;5029859;28;19928;-63
2023/05/07 08:59:36;;;;;;;;;;;19.70;99.90;;;;;;5011850;28;19978;-63
2023/05/07 09:02:09;;;;;;;;;;;19.80;99.90;;;;;;5026836;28;20018;-63
2023/05/07 09:04:36;;;;;;;;;;;19.80;99.90;;;;;;5032710;28;19956;-63
2023/05/07 09:07:08;;;;;;;;;;;20.00;99.90;;;;;;5017927;28;19925;-63
2023/05/07 09:09:44;;;;;;;;;;;20.10;99.90;;;;;;5023391;28;20028;-63
2023/05/07 09:12:17;;;;;;;;;;;20.20;99.90;;;;;;5041938;28;19956;-63
2023/05/07 09:14:49;;;;;;;;;;;20.30;99.90;;;;;;5012827;28;19929;-63
2023/05/07 09:17:21;;;;;;;;;;;20.40;99.90;;;;;;5046499;28;19933;-63
2023/05/07 09:19:48;;;;;;;;;;;20.50;99.90;;;;;;5027847;28;19925;-63
2023/05/07 09:22:16;;;;;;;;;;;20.50;99.90;;;;;;5025347;28;20007;-63
2023/05/07 09:24:52;;;;;;;;;;;20.60;99.90;;;;;;5029210;28;19936;-63
2023/05/07 09:27:26;;;;;;;;;;;20.70;99.90;;;;;;5031533;28;19931;-64
2023/05/07 09:29:59;;;;;;;;;;;20.80;99.90;;;;;;5017070;28;20012;-63
2023/05/07 09:32:34;;;;;;;;;;;20.90;99.90;;;;;;5025306;28;19932;-63
2023/05/07 09:35:16;;;;;;;;;;;21.00;99.90;;;;;;5012557;28;19940;-63
2023/05/07 09:37:54;;;;;;;;;;;21.10;99.90;;;;;;5023469;28;19965;-63
2023/05/07 09:40:26;;;;;;;;;;;21.10;99.90;;;;;;5027164;28;20012;-63
2023/05/07 09:43:13;;;;;;;;;;;21.10;99.90;;;;;;5029548;28;19929;-63
2023/05/07 09:45:51;;;;;;;;;;;21.10;99.90;;;;;;5017099;28;19925;-62
2023/05/07 09:48:25;;;;;;;;;;;21.10;99.90;;;;;;5029733;28;19924;-63
2023/05/07 09:51:01;;;;;;;;;;;21.10;99.90;;;;;;5033051;28;19970;-63
2023/05/07 09:53:33;;;;;;;;;;;21.20;99.90;;;;;;5027706;28;19932;-63
2023/05/07 09:56:06;;;;;;;;;;;21.30;99.90;;;;;;5025667;28;19935;-63
2023/05/07 09:58:36;;;;;;;;;;;21.40;99.90;;;;;;5028712;28;19926;-63
2023/05/07 10:01:10;;;;;;;;;;;21.70;99.90;;;;;;5030164;28;19935;-62
2023/05/07 10:03:43;;;;;;;;;;;21.90;99.90;;;;;;5031795;28;19987;-63
2023/05/07 10:06:15;;;;;;;;;;;21.90;99.90;;;;;;5050073;28;19924;-63
2023/05/07 10:08:47;;;;;;;;;;;21.90;99.90;;;;;;5033575;28;19931;-63
2023/05/07 10:11:20;;;;;;;;;;;22.00;99.90;;;;;;5018189;28;20054;-63
2023/05/07 10:13:52;;;;;;;;;;;22.10;99.90;;;;;;5020224;28;19975;-63
2023/05/07 10:16:25;;;;;;;;;;;22.30;99.90;;;;;;5026887;28;20412;-63
2023/05/07 10:18:57;;;;;;;;;;;22.40;99.90;;;;;;5010302;28;19976;-63
2023/05/07 10:21:26;;;;;;;;;;;22.60;99.90;;;;;;5011544;28;19929;-63
2023/05/07 10:24:10;;;;;;;;;;;22.60;99.90;;;;;;5026430;28;19928;-63
2023/05/07 10:26:45;;;;;;;;;;;22.60;99.90;;;;;;5027850;28;19933;-63
2023/05/07 10:29:18;;;;;;;;;;;22.60;99.90;;;;;;5033766;28;19929;-63
2023/05/07 10:32:07;;;;;;;;;;;22.60;99.90;;;;;;5031501;28;19937;-63
2023/05/07 10:34:41;;;;;;;;;;;22.60;99.90;;;;;;5026280;28;20778;-63
2023/05/07 10:37:13;;;;;;;;;;;22.60;99.90;;;;;;5045045;28;19932;-62
2023/05/07 10:39:45;;;;;;;;;;;22.60;99.90;;;;;;5039874;28;19925;-63
2023/05/07 10:42:17;;;;;;;;;;;22.70;99.90;;;;;;5021665;28;19939;-63
2023/05/07 10:44:49;;;;;;;;;;;22.70;99.90;;;;;;5023309;28;19932;-62
2023/05/07 10:47:25;;;;;;;;;;;22.60;99.90;;;;;;5028871;28;19936;-62
2023/05/07 10:50:06;;;;;;;;;;;22.70;99.90;;;;;;5038179;28;19925;-63
2023/05/07 10:52:40;;;;;;;;;;;22.70;99.90;;;;;;5018380;28;20300;-63
2023/05/07 10:55:25;;;;;;;;;;;22.80;99.90;;;;;;5032725;28;20027;-63
2023/05/07 10:58:21;;;;;;;;;;;22.80;99.90;;;;;;5031737;28;19928;-63
2023/05/07 11:01:36;;;;;;;;;;;22.80;99.90;;;;;;5041427;28;19929;-63
2023/05/07 11:04:15;;;;;;;;;;;22.90;99.90;;;;;;5031044;28;19924;-63
2023/05/07 11:07:06;;;;;;;;;;;23.10;99.90;;;;;;5034058;28;19925;-63
2023/05/07 11:09:53;;;;;;;;;;;23.30;99.90;;;;;;5029555;28;20023;-63
2023/05/07 11:12:35;;;;;;;;;;;23.40;99.90;;;;;;5028225;28;19924;-63
2023/05/07 11:15:15;;;;;;;;;;;23.50;99.90;;;;;;5025620;28;19935;-63
2023/05/07 11:17:55;;;;;;;;;;;23.50;99.90;;;;;;5029020;28;19936;-63
2023/05/07 11:20:43;;;;;;;;;;;23.60;99.90;;;;;;5030654;28;20397;-63
2023/05/07 11:23:35;;;;;;;;;;;23.60;99.90;;;;;;5029748;28;19929;-63
2023/05/07 11:26:17;;;;;;;;;;;23.60;99.90;;;;;;5029893;28;19975;-63
2023/05/07 11:28:50;;;;;;;;;;;23.50;99.90;;;;;;5015845;28;19932;-63
2023/05/07 11:31:25;;;;;;;;;;;23.40;99.90;;;;;;5030055;28;21098;-63
2023/05/07 11:33:59;;;;;;;;;;;23.30;99.90;;;;;;5014999;28;19935;-63
2023/05/07 11:36:32;;;;;;;;;;;23.30;99.90;;;;;;5026544;28;19975;-63
2023/05/07 11:39:05;;;;;;;;;;;23.20;99.90;;;;;;5037035;28;20308;-63
2023/05/07 11:41:37;;;;;;;;;;;23.10;99.90;;;;;;5042933;28;19936;-61
2023/05/07 11:44:08;;;;;;;;;;;23.10;99.90;;;;;;5028021;28;20268;-63
2023/05/07 11:46:43;;;;;;;;;;;23.10;99.90;;;;;;5040091;28;19931;-63
2023/05/07 11:49:10;;;;;;;;;;;23.20;99.90;;;;;;5043866;28;19959;-63
2023/05/07 11:51:41;;;;;;;;;;;23.10;99.90;;;;;;5045269;28;19925;-62
2023/05/07 11:54:15;;;;;;;;;;;23.10;99.90;;;;;;5041249;28;19933;-63
2023/05/07 11:56:47;;;;;;;;;;;23.10;99.90;;;;;;5044247;28;20407;-64
2023/05/07 11:59:19;;;;;;;;;;;23.00;99.90;;;;;;5040344;28;19936;-63
2023/05/07 12:01:50;;;;;;;;;;;23.00;99.90;;;;;;5025648;28;20360;-63
2023/05/07 12:04:22;;;;;;;;;;;22.90;99.90;;;;;;5037949;28;19929;-63
2023/05/07 12:06:53;;;;;;;;;;;23.00;99.90;;;;;;5041022;28;19925;-63
2023/05/07 12:09:25;;;;;;;;;;;23.10;99.90;;;;;;5044245;28;20047;-63
2023/05/07 12:12:02;;;;;;;;;;;23.10;99.90;;;;;;5042067;28;19963;-63
2023/05/07 12:14:40;;;;;;;;;;;23.30;99.90;;;;;;5042269;28;19951;-63
2023/05/07 12:17:13;;;;;;;;;;;23.40;99.90;;;;;;5041555;28;20318;-63
2023/05/07 12:19:44;;;;;;;;;;;23.40;99.90;;;;;;5040396;28;19931;-63
2023/05/07 12:22:16;;;;;;;;;;;23.40;99.90;;;;;;5043450;28;20417;-62
2023/05/07 12:24:49;;;;;;;;;;;23.40;99.90;;;;;;5040978;28;19935;-63
2023/05/07 12:27:21;;;;;;;;;;;23.60;99.90;;;;;;5030810;28;19928;-63
2023/05/07 12:29:52;;;;;;;;;;;23.70;99.90;;;;;;5047122;28;19929;-63
2023/05/07 12:32:24;;;;;;;;;;;23.80;99.90;;;;;;5026269;28;19925;-63
2023/05/07 12:34:56;;;;;;;;;;;23.90;99.90;;;;;;5034944;28;19924;-62
2023/05/07 12:37:28;;;;;;;;;;;23.90;99.90;;;;;;5043088;28;19936;-63
2023/05/07 12:40:08;;;;;;;;;;;23.90;99.90;;;;;;5041445;28;19930;-63
2023/05/07 12:42:40;;;;;;;;;;;24.00;99.90;;;;;;5042629;28;19932;-63
2023/05/07 12:45:08;;;;;;;;;;;24.10;99.90;;;;;;5034627;28;19933;-62
2023/05/07 12:47:43;;;;;;;;;;;24.10;99.90;;;;;;5035160;28;19978;-63
2023/05/07 12:50:15;;;;;;;;;;;24.20;99.90;;;;;;5038331;28;19929;-63
2023/05/07 12:52:43;;;;;;;;;;;24.20;99.90;;;;;;5018887;28;19952;-63
2023/05/07 12:55:15;;;;;;;;;;;24.30;99.90;;;;;;5008524;28;19932;-63
2023/05/07 12:57:48;;;;;;;;;;;24.40;99.90;;;;;;5047087;28;19936;-63
2023/05/07 13:00:38;;;;;;;;;;;24.50;99.90;;;;;;5043199;28;20313;-63
2023/05/07 13:03:05;;;;;;;;;;;24.50;99.70;;;;;;5042547;28;19933;-63
2023/05/07 13:05:37;;;;;;;;;;;24.40;99.70;;;;;;5040768;28;19983;-63
2023/05/07 13:08:09;;;;;;;;;;;24.40;99.90;;;;;;5045454;28;19968;-62
2023/05/07 13:10:41;;;;;;;;;;;24.40;99.30;;;;;;5046026;28;20382;-63
2023/05/07 13:13:12;;;;;;;;;;;24.40;99.90;;;;;;5038028;28;20011;-63
2023/05/07 13:15:44;;;;;;;;;;;24.50;99.90;;;;;;5018875;28;19931;-63
2023/05/07 13:18:16;;;;;;;;;;;24.50;99.80;;;;;;5023086;28;19929;-63
2023/05/07 13:20:47;;;;;;;;;;;24.60;99.90;;;;;;5042491;28;19931;-63
2023/05/07 13:23:19;;;;;;;;;;;24.70;99.90;;;;;;5050736;28;19929;-62
2023/05/07 13:25:53;;;;;;;;;;;24.70;98.50;;;;;;5044929;28;19925;-63
2023/05/07 13:28:26;;;;;;;;;;;24.50;98.90;;;;;;5034563;28;19932;-63
2023/05/07 13:30:54;;;;;;;;;;;24.40;99.40;;;;;;5044372;28;19933;-63
2023/05/07 13:33:25;;;;;;;;;;;24.20;99.70;;;;;;5039156;28;19935;-63
2023/05/07 13:35:57;;;;;;;;;;;24.20;99.90;;;;;;5046941;28;19925;-62
2023/05/07 13:38:29;;;;;;;;;;;24.20;99.60;;;;;;5039779;28;19936;-63
2023/05/07 13:41:00;;;;;;;;;;;24.30;99.70;;;;;;5039585;28;20522;-63
2023/05/07 13:43:35;;;;;;;;;;;24.30;99.90;;;;;;5028814;28;19929;-62
2023/05/07 13:46:02;;;;;;;;;;;24.50;99.10;;;;;;5042016;28;19971;-62
2023/05/07 13:48:33;;;;;;;;;;;24.40;99.00;;;;;;5029395;28;19928;-61
2023/05/07 13:51:05;;;;;;;;;;;24.50;98.70;;;;;;5045740;28;19944;-62
2023/05/07 13:53:37;;;;;;;;;;;24.50;98.80;;;;;;5044349;28;20442;-62
2023/05/07 13:56:08;;;;;;;;;;;24.70;99.20;;;;;;5043429;28;19990;-62
2023/05/07 13:58:40;;;;;;;;;;;24.80;98.70;;;;;;5041064;28;19980;-62
2023/05/07 14:01:12;;;;;;;;;;;24.80;99.40;;;;;;5041225;28;19932;-61
2023/05/07 14:03:44;;;;;;;;;;;24.80;99.00;;;;;;5043002;28;20353;-62
2023/05/07 14:06:16;;;;;;;;;;;24.70;98.50;;;;;;5033195;28;19983;-62
2023/05/07 14:08:48;;;;;;;;;;;24.70;98.20;;;;;;5025251;28;19925;-62
2023/05/07 14:11:21;;;;;;;;;;;24.70;98.80;;;;;;5035771;28;19926;-62
2023/05/07 14:13:52;;;;;;;;;;;24.70;98.80;;;;;;5039897;28;19978;-62
2023/05/07 14:16:24;;;;;;;;;;;24.70;98.70;;;;;;5015856;28;19925;-62
2023/05/07 14:18:56;;;;;;;;;;;24.70;98.70;;;;;;5043204;28;19929;-63
2023/05/07 14:21:27;;;;;;;;;;;24.80;97.90;;;;;;5046436;28;19932;-62
2023/05/07 14:23:59;;;;;;;;;;;24.80;98.30;;;;;;5047841;28;19933;-62
2023/05/07 14:26:31;;;;;;;;;;;24.80;98.60;;;;;;5047204;28;19925;-62
2023/05/07 14:29:03;;;;;;;;;;;24.80;99.60;;;;;;5037321;28;20448;-62
2023/05/07 14:31:35;;;;;;;;;;;24.80;98.70;;;;;;5032955;28;19929;-63
2023/05/07 14:34:06;;;;;;;;;;;24.80;98.90;;;;;;5036088;28;19925;-62
2023/05/07 14:36:38;;;;;;;;;;;24.80;98.60;;;;;;5037616;28;19932;-62
2023/05/07 14:39:10;;;;;;;;;;;24.70;97.60;;;;;;5041028;28;19925;-62
2023/05/07 14:41:41;;;;;;;;;;;24.60;98.80;;;;;;5042121;28;19932;-62
2023/05/07 14:44:13;;;;;;;;;;;24.50;97.50;;;;;;5044042;28;19936;-62
2023/05/07 14:46:40;;;;;;;;;;;24.50;97.70;;;;;;5029341;28;19932;-62
2023/05/07 14:49:16;;;;;;;;;;;24.30;98.40;;;;;;5046845;28;19929;-62